sensor_id;sensor_type;location;lat;lon;timestamp;P1;durP1;ratioP1;P2;durP2;ratioP2
7104;SDS011;3594;42.152;24.714;2023-06-01T00:01:51;10.82;;;5.90;;
7104;SDS011;3594;42.152;24.714;2023-06-01T00:04:16;11.68;;;6.40;;
7104;SDS011;3594;42.152;24.714;2023-06-01T00:06:42;10.85;;;6.30;;
7104;SDS011;3594;42.152;24.714;2023-06-01T00:09:08;9.20;;;5.68;;
7104;SDS011;3594;42.152;24.714;2023-06-01T00:11:33;8.68;;;5.10;;
7104;SDS011;3594;42.152;24.714;2023-06-01T00:13:58;10.77;;;6.20;;
7104;SDS011;3594;42.152;24.714;2023-06-01T00:16:24;10.60;;;5.90;;
7104;SDS011;3594;42.152;24.714;2023-06-01T00:18:50;10.65;;;6.10;;
7104;SDS011;3594;42.152;24.714;2023-06-01T00:21:21;12.57;;;6.18;;
7104;SDS011;3594;42.152;24.714;2023-06-01T00:23:46;12.15;;;5.95;;
7104;SDS011;3594;42.152;24.714;2023-06-01T00:26:13;11.13;;;5.72;;
7104;SDS011;3594;42.152;24.714;2023-06-01T00:28:38;11.40;;;6.15;;
7104;SDS011;3594;42.152;24.714;2023-06-01T00:31:04;11.27;;;6.13;;
7104;SDS011;3594;42.152;24.714;2023-06-01T00:33:30;11.10;;;6.05;;
7104;SDS011;3594;42.152;24.714;2023-06-01T00:35:55;9.32;;;5.65;;
7104;SDS011;3594;42.152;24.714;2023-06-01T00:38:21;8.82;;;5.65;;
7104;SDS011;3594;42.152;24.714;2023-06-01T00:40:46;12.30;;;5.82;;
7104;SDS011;3594;42.152;24.714;2023-06-01T00:43:16;10.50;;;5.75;;
7104;SDS011;3594;42.152;24.714;2023-06-01T00:45:42;9.77;;;5.22;;
7104;SDS011;3594;42.152;24.714;2023-06-01T00:48:08;10.07;;;5.65;;
7104;SDS011;3594;42.152;24.714;2023-06-01T00:50:34;10.27;;;6.20;;
7104;SDS011;3594;42.152;24.714;2023-06-01T00:53:00;14.55;;;6.43;;
7104;SDS011;3594;42.152;24.714;2023-06-01T00:55:27;11.98;;;6.20;;
7104;SDS011;3594;42.152;24.714;2023-06-01T00:57:52;11.55;;;5.53;;
7104;SDS011;3594;42.152;24.714;2023-06-01T01:00:20;9.07;;;5.55;;
7104;SDS011;3594;42.152;24.714;2023-06-01T01:02:47;9.00;;;5.50;;
7104;SDS011;3594;42.152;24.714;2023-06-01T01:05:14;10.02;;;5.43;;
7104;SDS011;3594;42.152;24.714;2023-06-01T01:15:41;7.82;;;4.65;;
7104;SDS011;3594;42.152;24.714;2023-06-01T01:18:18;7.75;;;5.05;;
7104;SDS011;3594;42.152;24.714;2023-06-01T01:20:56;9.10;;;5.15;;
7104;SDS011;3594;42.152;24.714;2023-06-01T01:26:14;7.95;;;4.65;;
7104;SDS011;3594;42.152;24.714;2023-06-01T01:29:06;13.68;;;5.22;;
7104;SDS011;3594;42.152;24.714;2023-06-01T01:31:34;7.40;;;4.60;;
7104;SDS011;3594;42.152;24.714;2023-06-01T01:34:00;8.77;;;4.75;;
7104;SDS011;3594;42.152;24.714;2023-06-01T01:36:28;10.30;;;5.22;;
7104;SDS011;3594;42.152;24.714;2023-06-01T01:38:55;7.82;;;4.70;;
7104;SDS011;3594;42.152;24.714;2023-06-01T01:41:20;7.93;;;5.05;;
7104;SDS011;3594;42.152;24.714;2023-06-01T01:43:47;7.97;;;4.90;;
7104;SDS011;3594;42.152;24.714;2023-06-01T01:46:32;9.45;;;5.25;;
7104;SDS011;3594;42.152;24.714;2023-06-01T01:54:25;7.72;;;4.93;;
7104;SDS011;3594;42.152;24.714;2023-06-01T01:56:53;9.23;;;5.15;;
7104;SDS011;3594;42.152;24.714;2023-06-01T01:59:23;10.85;;;4.85;;
7104;SDS011;3594;42.152;24.714;2023-06-01T02:01:49;8.77;;;5.43;;
7104;SDS011;3594;42.152;24.714;2023-06-01T02:04:15;12.05;;;5.68;;
7104;SDS011;3594;42.152;24.714;2023-06-01T02:06:40;8.43;;;5.25;;
7104;SDS011;3594;42.152;24.714;2023-06-01T02:09:06;8.02;;;4.88;;
7104;SDS011;3594;42.152;24.714;2023-06-01T02:11:35;7.45;;;5.10;;
7104;SDS011;3594;42.152;24.714;2023-06-01T02:14:01;8.10;;;5.03;;
7104;SDS011;3594;42.152;24.714;2023-06-01T02:16:27;8.13;;;5.28;;
7104;SDS011;3594;42.152;24.714;2023-06-01T02:18:52;11.43;;;5.47;;
7104;SDS011;3594;42.152;24.714;2023-06-01T02:21:18;8.55;;;5.15;;
7104;SDS011;3594;42.152;24.714;2023-06-01T02:23:43;8.75;;;5.45;;
7104;SDS011;3594;42.152;24.714;2023-06-01T02:26:09;9.73;;;6.10;;
7104;SDS011;3594;42.152;24.714;2023-06-01T02:28:38;8.70;;;5.60;;
7104;SDS011;3594;42.152;24.714;2023-06-01T02:31:04;8.00;;;5.05;;
7104;SDS011;3594;42.152;24.714;2023-06-01T02:33:30;9.18;;;5.30;;
7104;SDS011;3594;42.152;24.714;2023-06-01T02:35:56;8.50;;;5.32;;
7104;SDS011;3594;42.152;24.714;2023-06-01T02:38:21;9.77;;;5.47;;
7104;SDS011;3594;42.152;24.714;2023-06-01T02:40:47;11.10;;;5.15;;
7104;SDS011;3594;42.152;24.714;2023-06-01T02:43:12;7.95;;;5.30;;
7104;SDS011;3594;42.152;24.714;2023-06-01T02:45:38;8.43;;;4.75;;
7104;SDS011;3594;42.152;24.714;2023-06-01T02:48:03;7.78;;;5.38;;
7104;SDS011;3594;42.152;24.714;2023-06-01T02:50:29;9.10;;;5.32;;
7104;SDS011;3594;42.152;24.714;2023-06-01T02:52:54;10.27;;;5.03;;
7104;SDS011;3594;42.152;24.714;2023-06-01T02:55:20;8.55;;;5.43;;
7104;SDS011;3594;42.152;24.714;2023-06-01T02:57:45;9.27;;;5.35;;
7104;SDS011;3594;42.152;24.714;2023-06-01T03:00:11;10.40;;;5.50;;
7104;SDS011;3594;42.152;24.714;2023-06-01T03:02:43;16.73;;;5.40;;
7104;SDS011;3594;42.152;24.714;2023-06-01T03:05:09;9.05;;;5.22;;
7104;SDS011;3594;42.152;24.714;2023-06-01T03:07:46;8.30;;;5.00;;
7104;SDS011;3594;42.152;24.714;2023-06-01T03:10:12;9.88;;;5.35;;
7104;SDS011;3594;42.152;24.714;2023-06-01T03:12:38;9.02;;;5.07;;
7104;SDS011;3594;42.152;24.714;2023-06-01T03:15:04;9.48;;;5.47;;
7104;SDS011;3594;42.152;24.714;2023-06-01T03:17:31;9.05;;;4.60;;
7104;SDS011;3594;42.152;24.714;2023-06-01T03:19:57;11.07;;;4.95;;
7104;SDS011;3594;42.152;24.714;2023-06-01T03:22:22;7.25;;;4.55;;
7104;SDS011;3594;42.152;24.714;2023-06-01T03:24:48;8.88;;;5.32;;
7104;SDS011;3594;42.152;24.714;2023-06-01T03:27:17;8.75;;;4.97;;
7104;SDS011;3594;42.152;24.714;2023-06-01T03:29:44;9.85;;;4.95;;
7104;SDS011;3594;42.152;24.714;2023-06-01T03:32:09;8.10;;;4.47;;
7104;SDS011;3594;42.152;24.714;2023-06-01T03:34:35;8.07;;;4.57;;
7104;SDS011;3594;42.152;24.714;2023-06-01T03:37:02;7.28;;;4.88;;
7104;SDS011;3594;42.152;24.714;2023-06-01T03:39:29;6.88;;;4.57;;
7104;SDS011;3594;42.152;24.714;2023-06-01T03:41:58;8.23;;;4.25;;
7104;SDS011;3594;42.152;24.714;2023-06-01T03:44:24;8.20;;;4.90;;
7104;SDS011;3594;42.152;24.714;2023-06-01T03:46:49;9.15;;;4.05;;
7104;SDS011;3594;42.152;24.714;2023-06-01T03:49:15;7.82;;;4.28;;
7104;SDS011;3594;42.152;24.714;2023-06-01T03:51:40;7.40;;;4.28;;
7104;SDS011;3594;42.152;24.714;2023-06-01T03:54:05;6.90;;;4.20;;
7104;SDS011;3594;42.152;24.714;2023-06-01T03:56:31;10.40;;;5.07;;
7104;SDS011;3594;42.152;24.714;2023-06-01T03:58:57;7.90;;;4.45;;
7104;SDS011;3594;42.152;24.714;2023-06-01T04:01:24;6.43;;;3.90;;
7104;SDS011;3594;42.152;24.714;2023-06-01T04:03:49;7.95;;;4.68;;
7104;SDS011;3594;42.152;24.714;2023-06-01T04:06:15;7.63;;;4.38;;
7104;SDS011;3594;42.152;24.714;2023-06-01T04:08:45;6.30;;;3.80;;
7104;SDS011;3594;42.152;24.714;2023-06-01T04:11:15;5.28;;;3.97;;
7104;SDS011;3594;42.152;24.714;2023-06-01T04:13:42;8.55;;;3.97;;
7104;SDS011;3594;42.152;24.714;2023-06-01T04:16:08;7.07;;;4.22;;
7104;SDS011;3594;42.152;24.714;2023-06-01T04:18:34;6.60;;;4.15;;
7104;SDS011;3594;42.152;24.714;2023-06-01T04:21:00;6.57;;;4.15;;
7104;SDS011;3594;42.152;24.714;2023-06-01T04:23:25;8.52;;;4.25;;
7104;SDS011;3594;42.152;24.714;2023-06-01T04:25:50;6.75;;;3.92;;
7104;SDS011;3594;42.152;24.714;2023-06-01T04:28:16;6.60;;;4.30;;
7104;SDS011;3594;42.152;24.714;2023-06-01T04:30:42;8.13;;;3.97;;
7104;SDS011;3594;42.152;24.714;2023-06-01T04:33:09;5.20;;;3.83;;
7104;SDS011;3594;42.152;24.714;2023-06-01T04:35:35;7.28;;;4.40;;
7104;SDS011;3594;42.152;24.714;2023-06-01T04:38:02;6.57;;;4.13;;
7104;SDS011;3594;42.152;24.714;2023-06-01T04:40:27;6.60;;;4.18;;
7104;SDS011;3594;42.152;24.714;2023-06-01T04:42:53;8.40;;;4.15;;
7104;SDS011;3594;42.152;24.714;2023-06-01T04:45:22;7.45;;;4.30;;
7104;SDS011;3594;42.152;24.714;2023-06-01T04:47:48;6.28;;;3.92;;
7104;SDS011;3594;42.152;24.714;2023-06-01T04:50:15;7.40;;;4.70;;
7104;SDS011;3594;42.152;24.714;2023-06-01T04:52:41;7.95;;;4.43;;
7104;SDS011;3594;42.152;24.714;2023-06-01T04:55:08;6.63;;;4.40;;
7104;SDS011;3594;42.152;24.714;2023-06-01T04:57:35;6.43;;;4.53;;
7104;SDS011;3594;42.152;24.714;2023-06-01T05:00:04;7.28;;;4.25;;
7104;SDS011;3594;42.152;24.714;2023-06-01T05:02:36;6.57;;;4.40;;
7104;SDS011;3594;42.152;24.714;2023-06-01T05:05:02;6.18;;;4.10;;
7104;SDS011;3594;42.152;24.714;2023-06-01T05:07:29;6.93;;;4.05;;
7104;SDS011;3594;42.152;24.714;2023-06-01T05:09:54;7.03;;;4.50;;
7104;SDS011;3594;42.152;24.714;2023-06-01T05:12:20;8.43;;;4.88;;
7104;SDS011;3594;42.152;24.714;2023-06-01T05:14:53;6.38;;;4.10;;
7104;SDS011;3594;42.152;24.714;2023-06-01T05:17:18;6.10;;;4.22;;
7104;SDS011;3594;42.152;24.714;2023-06-01T05:19:43;8.75;;;4.10;;
7104;SDS011;3594;42.152;24.714;2023-06-01T05:22:09;6.25;;;4.30;;
7104;SDS011;3594;42.152;24.714;2023-06-01T05:24:35;6.88;;;4.28;;
7104;SDS011;3594;42.152;24.714;2023-06-01T05:27:00;6.57;;;4.15;;
7104;SDS011;3594;42.152;24.714;2023-06-01T05:29:25;5.97;;;3.97;;
7104;SDS011;3594;42.152;24.714;2023-06-01T05:31:51;5.95;;;3.35;;
7104;SDS011;3594;42.152;24.714;2023-06-01T05:34:16;6.30;;;4.03;;
7104;SDS011;3594;42.152;24.714;2023-06-01T05:36:42;6.75;;;3.97;;
7104;SDS011;3594;42.152;24.714;2023-06-01T05:39:07;6.75;;;3.95;;
7104;SDS011;3594;42.152;24.714;2023-06-01T05:41:32;7.03;;;4.35;;
7104;SDS011;3594;42.152;24.714;2023-06-01T05:43:58;12.73;;;4.47;;
7104;SDS011;3594;42.152;24.714;2023-06-01T05:46:23;7.72;;;4.18;;
7104;SDS011;3594;42.152;24.714;2023-06-01T05:48:49;12.90;;;4.60;;
7104;SDS011;3594;42.152;24.714;2023-06-01T05:51:16;7.18;;;4.28;;
7104;SDS011;3594;42.152;24.714;2023-06-01T05:53:42;7.45;;;4.70;;
7104;SDS011;3594;42.152;24.714;2023-06-01T05:56:08;7.10;;;4.43;;
7104;SDS011;3594;42.152;24.714;2023-06-01T05:58:33;5.88;;;4.32;;
7104;SDS011;3594;42.152;24.714;2023-06-01T06:00:58;6.32;;;4.38;;
7104;SDS011;3594;42.152;24.714;2023-06-01T06:03:24;5.43;;;3.63;;
7104;SDS011;3594;42.152;24.714;2023-06-01T06:05:49;6.72;;;4.53;;
7104;SDS011;3594;42.152;24.714;2023-06-01T06:08:15;6.53;;;3.95;;
7104;SDS011;3594;42.152;24.714;2023-06-01T06:10:40;9.77;;;3.65;;
7104;SDS011;3594;42.152;24.714;2023-06-01T06:13:06;6.60;;;4.18;;
7104;SDS011;3594;42.152;24.714;2023-06-01T06:15:32;7.55;;;4.55;;
7104;SDS011;3594;42.152;24.714;2023-06-01T06:17:57;6.60;;;4.18;;
7104;SDS011;3594;42.152;24.714;2023-06-01T06:20:22;8.50;;;3.83;;
7104;SDS011;3594;42.152;24.714;2023-06-01T06:22:51;6.35;;;4.00;;
7104;SDS011;3594;42.152;24.714;2023-06-01T06:25:17;7.15;;;4.07;;
7104;SDS011;3594;42.152;24.714;2023-06-01T06:27:43;7.63;;;4.38;;
7104;SDS011;3594;42.152;24.714;2023-06-01T06:30:08;6.40;;;3.88;;
7104;SDS011;3594;42.152;24.714;2023-06-01T06:32:34;5.53;;;3.88;;
7104;SDS011;3594;42.152;24.714;2023-06-01T06:35:00;5.70;;;4.03;;
7104;SDS011;3594;42.152;24.714;2023-06-01T06:37:25;7.35;;;4.60;;
7104;SDS011;3594;42.152;24.714;2023-06-01T06:39:51;8.13;;;4.20;;
7104;SDS011;3594;42.152;24.714;2023-06-01T06:42:16;5.97;;;3.90;;
7104;SDS011;3594;42.152;24.714;2023-06-01T06:44:41;9.38;;;4.15;;
7104;SDS011;3594;42.152;24.714;2023-06-01T06:47:07;7.60;;;3.90;;
7104;SDS011;3594;42.152;24.714;2023-06-01T06:49:32;4.63;;;3.63;;
7104;SDS011;3594;42.152;24.714;2023-06-01T06:51:58;6.18;;;4.07;;
7104;SDS011;3594;42.152;24.714;2023-06-01T06:54:23;6.57;;;4.43;;
7104;SDS011;3594;42.152;24.714;2023-06-01T06:56:49;5.13;;;3.83;;
7104;SDS011;3594;42.152;24.714;2023-06-01T06:59:14;5.85;;;4.00;;
7104;SDS011;3594;42.152;24.714;2023-06-01T07:01:40;6.55;;;4.18;;
7104;SDS011;3594;42.152;24.714;2023-06-01T07:04:06;7.75;;;4.55;;
7104;SDS011;3594;42.152;24.714;2023-06-01T07:06:32;6.00;;;4.10;;
7104;SDS011;3594;42.152;24.714;2023-06-01T07:08:58;6.60;;;3.90;;
7104;SDS011;3594;42.152;24.714;2023-06-01T07:11:24;6.60;;;3.65;;
7104;SDS011;3594;42.152;24.714;2023-06-01T07:13:51;6.10;;;3.95;;
7104;SDS011;3594;42.152;24.714;2023-06-01T07:16:17;6.32;;;4.20;;
7104;SDS011;3594;42.152;24.714;2023-06-01T07:18:42;5.88;;;3.83;;
7104;SDS011;3594;42.152;24.714;2023-06-01T07:21:08;6.07;;;4.10;;
7104;SDS011;3594;42.152;24.714;2023-06-01T07:23:33;6.03;;;4.05;;
7104;SDS011;3594;42.152;24.714;2023-06-01T07:25:59;6.28;;;4.30;;
7104;SDS011;3594;42.152;24.714;2023-06-01T07:28:25;5.47;;;3.75;;
7104;SDS011;3594;42.152;24.714;2023-06-01T07:30:51;5.55;;;3.88;;
7104;SDS011;3594;42.152;24.714;2023-06-01T07:33:19;5.88;;;4.00;;
7104;SDS011;3594;42.152;24.714;2023-06-01T07:35:46;5.10;;;3.60;;
7104;SDS011;3594;42.152;24.714;2023-06-01T07:38:11;5.95;;;3.95;;
7104;SDS011;3594;42.152;24.714;2023-06-01T07:40:37;7.95;;;3.78;;
7104;SDS011;3594;42.152;24.714;2023-06-01T07:43:02;6.00;;;3.92;;
7104;SDS011;3594;42.152;24.714;2023-06-01T07:45:28;5.70;;;3.97;;
7104;SDS011;3594;42.152;24.714;2023-06-01T07:47:53;6.65;;;3.65;;
7104;SDS011;3594;42.152;24.714;2023-06-01T07:50:19;5.90;;;3.97;;
7104;SDS011;3594;42.152;24.714;2023-06-01T07:52:44;6.60;;;4.30;;
7104;SDS011;3594;42.152;24.714;2023-06-01T07:55:10;6.65;;;4.15;;
7104;SDS011;3594;42.152;24.714;2023-06-01T07:57:36;5.82;;;3.95;;
7104;SDS011;3594;42.152;24.714;2023-06-01T08:00:02;6.65;;;3.90;;
7104;SDS011;3594;42.152;24.714;2023-06-01T08:02:37;7.85;;;4.50;;
7104;SDS011;3594;42.152;24.714;2023-06-01T08:05:02;6.60;;;4.35;;
7104;SDS011;3594;42.152;24.714;2023-06-01T08:07:28;7.40;;;4.53;;
7104;SDS011;3594;42.152;24.714;2023-06-01T08:09:54;7.22;;;4.15;;
7104;SDS011;3594;42.152;24.714;2023-06-01T08:12:20;5.93;;;4.28;;
7104;SDS011;3594;42.152;24.714;2023-06-01T08:14:46;5.28;;;4.05;;
7104;SDS011;3594;42.152;24.714;2023-06-01T08:17:11;6.78;;;4.50;;
7104;SDS011;3594;42.152;24.714;2023-06-01T08:19:38;8.00;;;4.28;;
7104;SDS011;3594;42.152;24.714;2023-06-01T08:22:03;7.13;;;4.40;;
7104;SDS011;3594;42.152;24.714;2023-06-01T08:24:30;7.25;;;4.43;;
7104;SDS011;3594;42.152;24.714;2023-06-01T08:26:57;6.20;;;4.30;;
7104;SDS011;3594;42.152;24.714;2023-06-01T08:29:23;9.85;;;4.78;;
7104;SDS011;3594;42.152;24.714;2023-06-01T08:31:48;8.85;;;4.25;;
7104;SDS011;3594;42.152;24.714;2023-06-01T08:34:14;6.95;;;4.80;;
7104;SDS011;3594;42.152;24.714;2023-06-01T08:36:39;13.15;;;4.97;;
7104;SDS011;3594;42.152;24.714;2023-06-01T08:39:20;8.40;;;4.28;;
7104;SDS011;3594;42.152;24.714;2023-06-01T08:44:35;7.53;;;4.60;;
7104;SDS011;3594;42.152;24.714;2023-06-01T08:47:04;8.13;;;4.22;;
7104;SDS011;3594;42.152;24.714;2023-06-01T08:49:31;5.45;;;3.85;;
7104;SDS011;3594;42.152;24.714;2023-06-01T08:51:59;6.05;;;3.95;;
7104;SDS011;3594;42.152;24.714;2023-06-01T08:54:27;5.63;;;4.10;;
7104;SDS011;3594;42.152;24.714;2023-06-01T08:56:55;8.77;;;3.95;;
7104;SDS011;3594;42.152;24.714;2023-06-01T08:59:24;6.97;;;4.00;;
7104;SDS011;3594;42.152;24.714;2023-06-01T09:01:50;7.80;;;3.88;;
7104;SDS011;3594;42.152;24.714;2023-06-01T09:04:18;6.63;;;4.07;;
7104;SDS011;3594;42.152;24.714;2023-06-01T09:06:43;9.13;;;4.50;;
7104;SDS011;3594;42.152;24.714;2023-06-01T09:09:09;7.97;;;4.07;;
7104;SDS011;3594;42.152;24.714;2023-06-01T09:11:38;8.27;;;4.43;;
7104;SDS011;3594;42.152;24.714;2023-06-01T09:14:22;6.47;;;3.88;;
7104;SDS011;3594;42.152;24.714;2023-06-01T09:16:49;5.40;;;3.67;;
7104;SDS011;3594;42.152;24.714;2023-06-01T09:19:16;5.50;;;3.88;;
7104;SDS011;3594;42.152;24.714;2023-06-01T09:21:57;4.25;;;3.30;;
7104;SDS011;3594;42.152;24.714;2023-06-01T09:24:24;4.95;;;3.42;;
7104;SDS011;3594;42.152;24.714;2023-06-01T09:26:50;5.03;;;3.25;;
7104;SDS011;3594;42.152;24.714;2023-06-01T09:29:22;4.60;;;3.33;;
7104;SDS011;3594;42.152;24.714;2023-06-01T09:31:48;5.50;;;3.40;;
7104;SDS011;3594;42.152;24.714;2023-06-01T09:34:14;6.47;;;3.50;;
7104;SDS011;3594;42.152;24.714;2023-06-01T09:36:51;4.90;;;3.35;;
7104;SDS011;3594;42.152;24.714;2023-06-01T09:39:18;5.55;;;3.35;;
7104;SDS011;3594;42.152;24.714;2023-06-01T09:46:57;4.85;;;3.25;;
7104;SDS011;3594;42.152;24.714;2023-06-01T09:54:33;5.07;;;3.13;;
7104;SDS011;3594;42.152;24.714;2023-06-01T09:56:59;4.60;;;3.20;;
7104;SDS011;3594;42.152;24.714;2023-06-01T09:59:26;4.22;;;2.72;;
7104;SDS011;3594;42.152;24.714;2023-06-01T10:01:54;3.90;;;2.78;;
7104;SDS011;3594;42.152;24.714;2023-06-01T10:04:25;4.07;;;2.90;;
7104;SDS011;3594;42.152;24.714;2023-06-01T10:06:52;2.92;;;2.30;;
7104;SDS011;3594;42.152;24.714;2023-06-01T10:09:19;4.43;;;3.08;;
7104;SDS011;3594;42.152;24.714;2023-06-01T10:11:47;3.65;;;2.75;;
7104;SDS011;3594;42.152;24.714;2023-06-01T10:14:16;4.15;;;2.60;;
7104;SDS011;3594;42.152;24.714;2023-06-01T10:16:42;3.20;;;2.70;;
7104;SDS011;3594;42.152;24.714;2023-06-01T10:19:08;3.88;;;2.83;;
7104;SDS011;3594;42.152;24.714;2023-06-01T10:21:35;3.83;;;2.85;;
7104;SDS011;3594;42.152;24.714;2023-06-01T10:24:01;5.13;;;2.95;;
7104;SDS011;3594;42.152;24.714;2023-06-01T10:26:30;4.07;;;2.72;;
7104;SDS011;3594;42.152;24.714;2023-06-01T10:29:02;4.68;;;2.90;;
7104;SDS011;3594;42.152;24.714;2023-06-01T10:31:32;4.25;;;2.65;;
7104;SDS011;3594;42.152;24.714;2023-06-01T10:34:00;5.05;;;3.13;;
7104;SDS011;3594;42.152;24.714;2023-06-01T10:39:23;4.07;;;3.08;;
7104;SDS011;3594;42.152;24.714;2023-06-01T10:41:51;5.82;;;3.00;;
7104;SDS011;3594;42.152;24.714;2023-06-01T10:52:26;4.35;;;2.75;;
7104;SDS011;3594;42.152;24.714;2023-06-01T10:54:52;5.00;;;3.00;;
7104;SDS011;3594;42.152;24.714;2023-06-01T10:57:24;4.85;;;3.22;;
7104;SDS011;3594;42.152;24.714;2023-06-01T11:02:35;4.82;;;3.10;;
7104;SDS011;3594;42.152;24.714;2023-06-01T11:08:01;5.13;;;3.63;;
7104;SDS011;3594;42.152;24.714;2023-06-01T11:13:11;3.72;;;2.80;;
7104;SDS011;3594;42.152;24.714;2023-06-01T11:21:14;5.05;;;2.92;;
7104;SDS011;3594;42.152;24.714;2023-06-01T11:23:42;4.38;;;3.05;;
7104;SDS011;3594;42.152;24.714;2023-06-01T11:26:09;3.65;;;2.70;;
7104;SDS011;3594;42.152;24.714;2023-06-01T11:28:40;5.68;;;3.03;;
7104;SDS011;3594;42.152;24.714;2023-06-01T11:31:09;4.90;;;2.83;;
7104;SDS011;3594;42.152;24.714;2023-06-01T11:33:37;5.25;;;2.67;;
7104;SDS011;3594;42.152;24.714;2023-06-01T11:36:04;4.45;;;2.80;;
7104;SDS011;3594;42.152;24.714;2023-06-01T11:38:38;4.97;;;2.97;;
7104;SDS011;3594;42.152;24.714;2023-06-01T11:41:04;5.40;;;2.63;;
7104;SDS011;3594;42.152;24.714;2023-06-01T11:43:31;4.28;;;2.90;;
7104;SDS011;3594;42.152;24.714;2023-06-01T11:46:00;4.18;;;2.90;;
7104;SDS011;3594;42.152;24.714;2023-06-01T11:48:30;4.30;;;2.75;;
7104;SDS011;3594;42.152;24.714;2023-06-01T11:50:56;4.05;;;2.70;;
7104;SDS011;3594;42.152;24.714;2023-06-01T11:53:24;9.98;;;3.20;;
7104;SDS011;3594;42.152;24.714;2023-06-01T11:55:51;5.03;;;2.70;;
7104;SDS011;3594;42.152;24.714;2023-06-01T11:58:25;4.55;;;2.92;;
7104;SDS011;3594;42.152;24.714;2023-06-01T12:00:52;4.55;;;2.72;;
7104;SDS011;3594;42.152;24.714;2023-06-01T12:03:19;3.90;;;3.03;;
7104;SDS011;3594;42.152;24.714;2023-06-01T12:05:45;4.15;;;2.90;;
7104;SDS011;3594;42.152;24.714;2023-06-01T12:08:19;5.05;;;2.97;;
7104;SDS011;3594;42.152;24.714;2023-06-01T12:10:48;5.15;;;3.30;;
7104;SDS011;3594;42.152;24.714;2023-06-01T12:13:15;4.18;;;3.00;;
7104;SDS011;3594;42.152;24.714;2023-06-01T12:15:42;10.45;;;3.13;;
7104;SDS011;3594;42.152;24.714;2023-06-01T12:18:08;4.03;;;3.00;;
7104;SDS011;3594;42.152;24.714;2023-06-01T12:20:37;4.55;;;2.83;;
7104;SDS011;3594;42.152;24.714;2023-06-01T12:25:38;4.03;;;2.90;;
7104;SDS011;3594;42.152;24.714;2023-06-01T12:28:16;5.30;;;2.92;;
7104;SDS011;3594;42.152;24.714;2023-06-01T12:30:42;4.35;;;3.15;;
7104;SDS011;3594;42.152;24.714;2023-06-01T12:33:08;4.93;;;3.08;;
7104;SDS011;3594;42.152;24.714;2023-06-01T12:35:47;5.30;;;3.20;;
7104;SDS011;3594;42.152;24.714;2023-06-01T12:38:13;4.75;;;3.00;;
7104;SDS011;3594;42.152;24.714;2023-06-01T12:40:39;5.30;;;3.30;;
7104;SDS011;3594;42.152;24.714;2023-06-01T12:43:05;5.57;;;3.20;;
7104;SDS011;3594;42.152;24.714;2023-06-01T12:45:43;4.28;;;3.03;;
7104;SDS011;3594;42.152;24.714;2023-06-01T12:48:09;5.30;;;3.40;;
7104;SDS011;3594;42.152;24.714;2023-06-01T12:50:54;4.15;;;3.00;;
7104;SDS011;3594;42.152;24.714;2023-06-01T12:53:20;4.18;;;2.70;;
7104;SDS011;3594;42.152;24.714;2023-06-01T12:55:46;4.70;;;3.28;;
7104;SDS011;3594;42.152;24.714;2023-06-01T12:58:11;4.45;;;3.00;;
7104;SDS011;3594;42.152;24.714;2023-06-01T13:00:37;5.07;;;3.22;;
7104;SDS011;3594;42.152;24.714;2023-06-01T13:03:02;5.90;;;3.20;;
7104;SDS011;3594;42.152;24.714;2023-06-01T13:05:28;4.22;;;3.30;;
7104;SDS011;3594;42.152;24.714;2023-06-01T13:07:53;4.28;;;3.33;;
7104;SDS011;3594;42.152;24.714;2023-06-01T13:10:19;4.75;;;3.05;;
7104;SDS011;3594;42.152;24.714;2023-06-01T13:12:44;4.97;;;3.20;;
7104;SDS011;3594;42.152;24.714;2023-06-01T13:15:10;7.90;;;3.35;;
7104;SDS011;3594;42.152;24.714;2023-06-01T13:17:37;4.43;;;2.78;;
7104;SDS011;3594;42.152;24.714;2023-06-01T13:20:02;4.80;;;3.10;;
7104;SDS011;3594;42.152;24.714;2023-06-01T13:22:31;5.00;;;3.13;;
7104;SDS011;3594;42.152;24.714;2023-06-01T13:24:56;3.80;;;3.13;;
7104;SDS011;3594;42.152;24.714;2023-06-01T13:27:22;4.95;;;3.42;;
7104;SDS011;3594;42.152;24.714;2023-06-01T13:29:48;5.13;;;2.75;;
7104;SDS011;3594;42.152;24.714;2023-06-01T13:32:13;6.03;;;3.70;;
7104;SDS011;3594;42.152;24.714;2023-06-01T13:34:38;4.72;;;3.03;;
7104;SDS011;3594;42.152;24.714;2023-06-01T13:37:04;4.90;;;3.00;;
7104;SDS011;3594;42.152;24.714;2023-06-01T13:39:30;5.00;;;3.35;;
7104;SDS011;3594;42.152;24.714;2023-06-01T13:41:55;5.00;;;3.03;;
7104;SDS011;3594;42.152;24.714;2023-06-01T13:44:22;5.35;;;3.15;;
7104;SDS011;3594;42.152;24.714;2023-06-01T13:46:47;5.15;;;3.50;;
7104;SDS011;3594;42.152;24.714;2023-06-01T13:49:14;4.05;;;3.15;;
7104;SDS011;3594;42.152;24.714;2023-06-01T13:51:40;6.65;;;3.35;;
7104;SDS011;3594;42.152;24.714;2023-06-01T13:54:06;4.88;;;3.25;;
7104;SDS011;3594;42.152;24.714;2023-06-01T13:56:31;4.75;;;3.28;;
7104;SDS011;3594;42.152;24.714;2023-06-01T13:58:57;5.82;;;3.35;;
7104;SDS011;3594;42.152;24.714;2023-06-01T14:01:22;5.03;;;3.50;;
7104;SDS011;3594;42.152;24.714;2023-06-01T14:03:48;5.63;;;3.35;;
7104;SDS011;3594;42.152;24.714;2023-06-01T14:06:13;4.70;;;3.25;;
7104;SDS011;3594;42.152;24.714;2023-06-01T14:08:39;4.30;;;3.13;;
7104;SDS011;3594;42.152;24.714;2023-06-01T14:11:04;5.47;;;3.50;;
7104;SDS011;3594;42.152;24.714;2023-06-01T14:13:30;4.45;;;3.10;;
7104;SDS011;3594;42.152;24.714;2023-06-01T14:15:55;5.30;;;2.97;;
7104;SDS011;3594;42.152;24.714;2023-06-01T14:18:21;6.22;;;3.38;;
7104;SDS011;3594;42.152;24.714;2023-06-01T14:20:46;4.90;;;3.08;;
7104;SDS011;3594;42.152;24.714;2023-06-01T14:23:12;7.15;;;3.60;;
7104;SDS011;3594;42.152;24.714;2023-06-01T14:25:37;4.53;;;3.40;;
7104;SDS011;3594;42.152;24.714;2023-06-01T14:28:03;7.03;;;3.30;;
7104;SDS011;3594;42.152;24.714;2023-06-01T14:30:28;4.32;;;3.28;;
7104;SDS011;3594;42.152;24.714;2023-06-01T14:32:54;5.43;;;3.45;;
7104;SDS011;3594;42.152;24.714;2023-06-01T14:35:19;5.15;;;3.22;;
7104;SDS011;3594;42.152;24.714;2023-06-01T14:37:45;5.22;;;3.20;;
7104;SDS011;3594;42.152;24.714;2023-06-01T14:40:11;5.47;;;3.25;;
7104;SDS011;3594;42.152;24.714;2023-06-01T14:42:37;4.32;;;2.92;;
7104;SDS011;3594;42.152;24.714;2023-06-01T14:45:04;5.00;;;3.13;;
7104;SDS011;3594;42.152;24.714;2023-06-01T14:47:36;6.35;;;3.53;;
7104;SDS011;3594;42.152;24.714;2023-06-01T14:50:03;4.88;;;3.08;;
7104;SDS011;3594;42.152;24.714;2023-06-01T14:52:29;4.38;;;2.97;;
7104;SDS011;3594;42.152;24.714;2023-06-01T14:54:55;6.43;;;3.10;;
7104;SDS011;3594;42.152;24.714;2023-06-01T14:57:20;4.38;;;3.00;;
7104;SDS011;3594;42.152;24.714;2023-06-01T14:59:46;4.82;;;3.25;;
7104;SDS011;3594;42.152;24.714;2023-06-01T15:02:11;4.32;;;3.00;;
7104;SDS011;3594;42.152;24.714;2023-06-01T15:04:37;6.03;;;4.07;;
7104;SDS011;3594;42.152;24.714;2023-06-01T15:07:03;5.40;;;3.45;;
7104;SDS011;3594;42.152;24.714;2023-06-01T15:09:29;4.72;;;3.40;;
7104;SDS011;3594;42.152;24.714;2023-06-01T15:11:54;4.20;;;2.95;;
7104;SDS011;3594;42.152;24.714;2023-06-01T15:14:21;6.95;;;3.33;;
7104;SDS011;3594;42.152;24.714;2023-06-01T15:16:47;4.57;;;3.38;;
7104;SDS011;3594;42.152;24.714;2023-06-01T15:19:12;5.25;;;3.58;;
7104;SDS011;3594;42.152;24.714;2023-06-01T15:21:38;4.90;;;3.33;;
7104;SDS011;3594;42.152;24.714;2023-06-01T15:24:04;5.20;;;2.92;;
7104;SDS011;3594;42.152;24.714;2023-06-01T15:26:29;4.50;;;3.28;;
7104;SDS011;3594;42.152;24.714;2023-06-01T15:28:55;3.63;;;2.88;;
7104;SDS011;3594;42.152;24.714;2023-06-01T15:31:21;4.25;;;3.20;;
7104;SDS011;3594;42.152;24.714;2023-06-01T15:33:46;5.13;;;3.38;;
7104;SDS011;3594;42.152;24.714;2023-06-01T15:36:12;4.40;;;2.80;;
7104;SDS011;3594;42.152;24.714;2023-06-01T15:38:39;5.28;;;3.40;;
7104;SDS011;3594;42.152;24.714;2023-06-01T15:41:05;5.10;;;3.47;;
7104;SDS011;3594;42.152;24.714;2023-06-01T15:43:33;4.93;;;3.40;;
7104;SDS011;3594;42.152;24.714;2023-06-01T15:46:00;3.90;;;2.88;;
7104;SDS011;3594;42.152;24.714;2023-06-01T15:48:25;5.95;;;3.30;;
7104;SDS011;3594;42.152;24.714;2023-06-01T15:50:50;4.07;;;2.88;;
7104;SDS011;3594;42.152;24.714;2023-06-01T15:53:16;4.82;;;3.35;;
7104;SDS011;3594;42.152;24.714;2023-06-01T15:55:43;4.15;;;3.20;;